Time;durP1;ratioP1;P1;durP2;ratioP2;P2;SDS_P1;SDS_P2;PMS_P1;PMS_P2;Temp;Humidity;BMP_temperature;BMP_pressure;BME280_temperature;BME280_humidity;BME280_pressure;Samples;Min_cycle;Max_cycle;Signal;HPM_P1;HPM_P2
2023/07/26 00:00:12;;;;;;;4.07;3.50;;;13.00;99.90;;;12.97;95.30;97318.66;5146178;27;20440;-76
2023/07/26 00:02:39;;;;;;;4.77;3.63;;;13.10;99.90;;;13.14;94.96;97326.75;5142962;27;20619;-75
2023/07/26 00:05:07;;;;;;;5.17;4.20;;;13.10;99.90;;;13.12;95.16;97300.97;5138640;27;20468;-75
2023/07/26 00:07:36;;;;;;;4.80;3.63;;;13.30;99.90;;;13.32;95.60;97322.94;5120675;27;20465;-75
2023/07/26 00:10:03;;;;;;;5.00;4.13;;;13.30;99.90;;;13.30;95.03;97330.50;5149542;27;20569;-76
2023/07/26 00:12:30;;;;;;;3.83;3.43;;;13.40;99.90;;;13.34;94.97;97338.13;5144407;27;20562;-76
2023/07/26 00:14:58;;;;;;;6.13;4.27;;;13.40;99.90;;;13.43;95.30;97331.22;5147289;27;20480;-76
2023/07/26 00:17:26;;;;;;;5.80;4.57;;;13.50;99.90;;;13.55;95.23;97333.84;5126985;27;20449;-76
2023/07/26 00:19:53;;;;;;;5.07;4.57;;;13.50;99.90;;;13.38;95.43;97329.25;5119707;27;20446;-77
2023/07/26 00:22:21;;;;;;;5.10;4.60;;;13.50;99.90;;;13.42;95.78;97345.84;5126251;27;20460;-77
2023/07/26 00:24:49;;;;;;;6.27;4.50;;;13.50;99.90;;;13.46;96.78;97344.31;5120079;27;20472;-76
2023/07/26 00:27:17;;;;;;;6.50;4.83;;;13.50;99.90;;;13.45;97.26;97334.53;5128600;27;20443;-78
2023/07/26 00:29:44;;;;;;;5.87;4.67;;;13.50;99.90;;;13.60;96.60;97347.47;5129557;27;20464;-76
2023/07/26 00:32:11;;;;;;;6.00;5.40;;;13.50;99.90;;;13.39;95.55;97330.06;5133316;27;20845;-77
2023/07/26 00:34:39;;;;;;;5.53;4.97;;;13.60;99.90;;;13.40;97.18;97348.81;5103049;27;20504;-77
2023/07/26 00:37:06;;;;;;;6.60;5.93;;;13.50;99.90;;;13.43;96.68;97355.66;5135204;27;20440;-79
2023/07/26 00:39:33;;;;;;;6.80;5.20;;;13.50;99.90;;;13.29;96.70;97341.59;5127930;27;20443;-77
2023/07/26 00:42:02;;;;;;;5.77;5.13;;;13.50;99.90;;;13.49;96.43;97357.38;5125672;27;20450;-77
2023/07/26 00:44:29;;;;;;;6.90;4.97;;;13.50;99.90;;;13.50;96.44;97360.91;5127072;27;20472;-78
2023/07/26 00:46:56;;;;;;;4.40;4.00;;;13.50;99.90;;;13.38;96.25;97355.56;5115988;27;20479;-77
2023/07/26 00:49:24;;;;;;;4.67;4.17;;;13.50;99.90;;;13.30;96.96;97359.50;5130205;27;20504;-77
2023/07/26 00:51:51;;;;;;;11.13;5.07;;;13.50;99.90;;;13.53;96.76;97379.41;5109733;27;21088;-78
2023/07/26 00:54:21;;;;;;;5.40;4.67;;;13.50;99.90;;;13.41;96.83;97382.19;5129628;27;20448;-80
2023/07/26 00:56:48;;;;;;;5.43;5.03;;;13.50;99.90;;;13.41;96.87;97376.75;5101268;27;20790;-77
2023/07/26 00:59:17;;;;;;;6.40;4.33;;;13.50;99.90;;;13.28;96.39;97372.50;5120406;27;21249;-77
2023/07/26 01:01:44;;;;;;;5.33;4.80;;;13.50;99.90;;;13.38;96.36;97380.81;5137641;27;20524;-78
2023/07/26 01:04:12;;;;;;;6.73;5.20;;;13.50;99.90;;;13.29;96.28;97369.56;5123933;27;20998;-78
2023/07/26 01:06:48;;;;;;;6.53;5.40;;;13.50;99.90;;;13.34;96.21;97381.53;5104500;27;20450;-78
2023/07/26 01:09:26;;;;;;;5.80;4.90;;;13.50;99.90;;;13.32;96.48;97374.47;5098994;27;20462;-78
2023/07/26 01:12:02;;;;;;;6.20;5.37;;;13.50;99.90;;;13.27;96.00;97398.81;5121804;27;20982;-78
2023/07/26 01:14:37;;;;;;;5.93;5.37;;;13.40;99.90;;;13.28;96.21;97395.03;5130018;27;21079;-77
2023/07/26 01:17:07;;;;;;;6.93;5.33;;;13.40;99.90;;;13.40;96.28;97397.66;5109592;27;20505;-77
2023/07/26 01:19:35;;;;;;;5.63;5.10;;;13.40;99.90;;;13.25;96.20;97394.72;5127967;27;20543;-78
2023/07/26 01:22:04;;;;;;;7.20;5.73;;;13.40;99.90;;;12.81;95.81;97338.44;5130308;27;20458;-77
2023/07/26 01:24:32;;;;;;;6.63;5.23;;;13.40;99.90;;;13.22;96.08;97401.44;5132314;27;21039;-74
2023/07/26 01:26:59;;;;;;;5.53;5.03;;;13.40;99.90;;;13.22;95.40;97404.16;5136065;27;20463;-78
2023/07/26 01:29:26;;;;;;;8.80;5.63;;;13.40;99.90;;;13.23;94.94;97397.66;5131881;27;20448;-77
2023/07/26 01:31:54;;;;;;;8.43;5.37;;;13.40;99.90;;;13.35;94.30;97410.31;5129860;27;20541;-76
2023/07/26 01:34:21;;;;;;;5.10;4.60;;;13.40;99.90;;;13.29;94.16;97412.97;5119155;27;20610;-76
2023/07/26 01:36:51;;;;;;;9.50;5.13;;;13.40;99.90;;;13.41;94.42;97414.72;5104711;27;20948;-74
2023/07/26 01:39:20;;;;;;;5.10;4.60;;;13.40;99.90;;;13.23;93.52;97402.28;5097248;27;20979;-79
2023/07/26 01:41:48;;;;;;;4.80;4.40;;;13.40;99.90;;;13.26;92.78;97408.00;5127881;27;20443;-78
2023/07/26 01:44:15;;;;;;;6.27;5.00;;;13.40;99.90;;;13.22;93.01;97401.44;5124337;27;20465;-80
2023/07/26 01:46:43;;;;;;;5.10;4.40;;;13.40;99.90;;;13.23;92.47;97408.50;5117385;27;20453;-77
2023/07/26 01:49:10;;;;;;;5.27;4.73;;;13.40;99.90;;;13.24;92.32;97402.00;5135797;27;20511;-77
2023/07/26 01:51:37;;;;;;;4.57;4.13;;;13.40;99.90;;;13.15;91.56;97406.22;5124912;27;20457;-78
2023/07/26 01:54:04;;;;;;;5.10;4.37;;;13.40;99.90;;;13.38;90.79;97407.94;5130604;27;20455;-75
2023/07/26 01:56:33;;;;;;;4.30;4.00;;;13.40;99.90;;;13.41;90.29;97418.28;5104421;27;20469;-76
2023/07/26 01:59:00;;;;;;;4.47;4.07;;;13.50;99.90;;;13.28;90.97;97422.16;5107532;27;20454;-78
2023/07/26 02:01:28;;;;;;;5.20;4.23;;;13.40;99.90;;;13.27;90.64;97417.81;5135592;27;20454;-76
2023/07/26 02:03:55;;;;;;;5.17;3.90;;;13.40;99.90;;;13.24;90.67;97421.00;5128492;27;20460;-76
2023/07/26 02:06:22;;;;;;;4.93;4.43;;;13.40;99.90;;;13.27;90.89;97425.97;5109358;27;20464;-76
2023/07/26 02:08:49;;;;;;;6.57;4.53;;;13.40;99.90;;;13.27;90.93;97436.81;5124051;27;20466;-76
2023/07/26 02:11:16;;;;;;;4.33;3.67;;;13.40;99.90;;;13.31;91.08;97432.53;5129200;27;20443;-73
2023/07/26 02:13:45;;;;;;;4.67;4.03;;;13.40;99.90;;;13.30;90.57;97427.34;5131011;27;21037;-76
2023/07/26 02:16:12;;;;;;;4.23;3.80;;;13.40;99.90;;;13.34;90.75;97430.38;5106326;27;20449;-77
2023/07/26 02:18:39;;;;;;;4.70;4.30;;;13.40;99.90;;;13.34;89.63;97436.59;5106050;27;20468;-75
2023/07/26 02:21:07;;;;;;;4.10;3.37;;;13.40;99.90;;;13.17;89.88;97436.63;5132296;27;20567;-75
2023/07/26 02:23:34;;;;;;;4.50;4.10;;;13.40;99.90;;;13.36;89.71;97444.50;5121196;27;20454;-76
2023/07/26 02:26:01;;;;;;;4.40;4.00;;;13.40;99.90;;;13.30;88.41;97435.47;5111284;27;20470;-75
2023/07/26 02:28:28;;;;;;;5.63;3.37;;;13.40;99.20;;;13.40;88.14;97446.50;5144270;27;20446;-78
2023/07/26 02:30:57;;;;;;;4.53;3.90;;;13.40;98.60;;;13.15;88.34;97422.50;5142101;27;20487;-76
2023/07/26 02:33:24;;;;;;;4.03;3.43;;;13.40;97.60;;;13.29;88.29;97445.50;5129150;27;20436;-76
2023/07/26 02:35:51;;;;;;;4.17;3.30;;;13.40;98.10;;;13.29;87.82;97453.66;5125624;27;20467;-77
2023/07/26 02:38:19;;;;;;;6.73;3.57;;;13.40;97.90;;;13.28;86.99;97448.47;5142569;27;20459;-78
2023/07/26 02:40:47;;;;;;;6.93;3.20;;;13.40;97.60;;;13.41;86.17;97450.00;5130589;27;20452;-77
2023/07/26 02:43:14;;;;;;;3.40;3.10;;;13.40;97.00;;;13.19;86.04;97456.19;5113334;27;20997;-79
2023/07/26 02:45:41;;;;;;;4.10;3.37;;;13.40;95.60;;;12.90;86.47;97421.00;5131741;27;20500;-78
2023/07/26 02:48:10;;;;;;;7.03;4.13;;;13.30;96.20;;;13.21;85.79;97456.75;5127723;27;21238;-78
2023/07/26 02:50:37;;;;;;;4.00;3.50;;;13.30;96.00;;;13.08;85.89;97447.06;5115209;27;20540;-73
2023/07/26 02:53:04;;;;;;;3.67;3.03;;;13.20;95.90;;;13.08;85.52;97455.22;5122146;27;20953;-78
2023/07/26 02:55:31;;;;;;;3.77;2.97;;;13.20;96.30;;;12.56;85.75;97415.53;5109074;27;20754;-78
2023/07/26 02:57:59;;;;;;;5.03;3.00;;;13.10;94.90;;;12.83;85.84;97453.69;5117481;27;20531;-76
2023/07/26 03:00:26;;;;;;;5.80;2.73;;;13.10;95.30;;;13.06;85.90;97461.94;5126923;27;20455;-76
2023/07/26 03:02:54;;;;;;;4.67;3.20;;;13.10;96.10;;;12.63;85.51;97416.19;5131675;27;20453;-76
2023/07/26 03:05:22;;;;;;;5.20;3.40;;;13.10;96.00;;;12.86;85.87;97465.94;5124713;27;20491;-77
2023/07/26 03:07:49;;;;;;;3.30;3.10;;;13.00;95.70;;;12.85;85.90;97467.00;5134190;27;20440;-77
2023/07/26 03:10:17;;;;;;;4.17;3.77;;;13.00;95.90;;;12.81;86.44;97466.66;5104054;27;20495;-77
2023/07/26 03:12:44;;;;;;;3.93;2.87;;;12.90;96.10;;;12.73;86.51;97476.00;5128332;27;20518;-77
2023/07/26 03:15:11;;;;;;;4.20;3.80;;;12.90;96.20;;;12.62;87.11;97452.50;5131467;27;20447;-78
2023/07/26 03:17:38;;;;;;;4.37;3.43;;;12.90;96.80;;;12.72;87.18;97482.50;5109356;27;20433;-77
2023/07/26 03:20:08;;;;;;;3.30;3.10;;;12.90;96.80;;;12.74;87.14;97485.78;5114007;27;21139;-77
2023/07/26 03:22:36;;;;;;;5.17;3.70;;;12.90;96.90;;;12.86;86.19;97479.50;5124723;27;20505;-77
2023/07/26 03:25:03;;;;;;;3.23;2.90;;;13.00;96.40;;;12.90;86.06;97491.50;5129195;27;20572;-78
2023/07/26 03:27:31;;;;;;;5.00;3.53;;;13.00;96.10;;;12.72;86.14;97454.56;5129859;27;20451;-78
2023/07/26 03:29:58;;;;;;;4.40;4.00;;;13.00;96.20;;;12.82;85.97;97478.34;5113161;27;21147;-78
2023/07/26 03:32:26;;;;;;;3.73;3.43;;;13.00;96.10;;;12.76;86.21;97482.84;5130612;27;20453;-78
2023/07/26 03:34:53;;;;;;;3.57;3.27;;;13.00;96.00;;;12.91;85.72;97503.16;5105507;27;20524;-76
2023/07/26 03:37:20;;;;;;;3.30;3.00;;;13.00;95.80;;;12.27;85.79;97427.19;5132462;27;20837;-77
2023/07/26 03:39:48;;;;;;;3.93;3.53;;;13.00;95.50;;;12.91;85.65;97501.25;5135092;27;20457;-76
2023/07/26 03:42:15;;;;;;;4.03;3.63;;;13.00;95.40;;;12.98;85.78;97498.41;5131835;27;20569;-76
2023/07/26 03:44:43;;;;;;;4.00;3.27;;;13.00;95.80;;;12.91;85.48;97490.41;5121620;27;20537;-77
2023/07/26 03:47:10;;;;;;;5.73;3.57;;;13.00;95.50;;;12.95;85.52;97494.28;5122596;27;20448;-78
2023/07/26 03:49:38;;;;;;;3.70;3.30;;;13.00;95.40;;;12.90;85.63;97491.50;5109962;27;20522;-77
2023/07/26 03:52:06;;;;;;;3.87;3.57;;;13.00;95.30;;;12.87;85.50;97497.41;5111368;27;20955;-77
2023/07/26 03:54:33;;;;;;;3.97;3.57;;;13.00;95.20;;;12.64;85.71;97485.59;5124314;27;20465;-76
2023/07/26 03:57:01;;;;;;;3.80;3.20;;;13.00;95.20;;;12.72;85.39;97490.63;5120774;27;20494;-77
2023/07/26 03:59:28;;;;;;;3.70;3.40;;;12.90;95.10;;;12.69;86.31;97496.53;5111845;27;20453;-77
2023/07/26 04:01:55;;;;;;;3.07;2.83;;;12.90;95.60;;;12.83;85.73;97512.53;5112484;27;20854;-77
2023/07/26 04:04:23;;;;;;;3.67;3.23;;;12.90;95.80;;;12.84;86.07;97512.25;5129131;27;20451;-76
2023/07/26 04:06:50;;;;;;;4.50;3.67;;;12.90;95.80;;;12.83;85.60;97509.81;5130387;27;20482;-78
2023/07/26 04:09:17;;;;;;;3.97;3.57;;;12.90;95.50;;;12.98;85.44;97512.81;5123594;27;20514;-77
2023/07/26 04:11:45;;;;;;;3.80;3.40;;;13.00;95.80;;;12.75;86.00;97514.53;5099245;27;20496;-78
2023/07/26 04:14:13;;;;;;;6.00;3.90;;;12.90;95.40;;;12.78;85.90;97513.25;5117650;27;20958;-78
2023/07/26 04:16:40;;;;;;;5.20;3.77;;;12.90;95.50;;;12.78;85.97;97501.56;5105372;27;20458;-78
2023/07/26 04:19:07;;;;;;;5.33;4.20;;;12.90;96.20;;;12.78;86.19;97515.94;5130246;27;20449;-77
2023/07/26 04:21:34;;;;;;;4.00;3.60;;;12.90;95.80;;;12.83;86.42;97517.94;5114219;27;20459;-78
2023/07/26 04:24:02;;;;;;;7.40;3.63;;;12.90;96.50;;;12.71;86.17;97516.09;5111496;27;20461;-77
2023/07/26 04:26:29;;;;;;;3.10;2.90;;;12.90;95.90;;;12.88;85.86;97531.59;5107653;27;20472;-78
2023/07/26 04:28:56;;;;;;;4.47;3.50;;;13.00;95.50;;;12.83;85.52;97534.19;5133718;27;20459;-75
2023/07/26 04:31:25;;;;;;;4.10;3.50;;;13.00;95.10;;;12.88;85.18;97537.81;5103310;27;20483;-75
2023/07/26 04:33:52;;;;;;;4.47;4.00;;;13.10;95.10;;;13.07;84.48;97539.50;5124455;27;20454;-76
2023/07/26 04:36:19;;;;;;;3.20;3.00;;;13.10;94.60;;;13.02;84.34;97541.06;5111250;27;20512;-77
2023/07/26 04:38:47;;;;;;;4.10;3.20;;;13.20;94.30;;;12.88;84.52;97532.38;5127551;27;20742;-78
2023/07/26 04:41:14;;;;;;;4.97;3.10;;;13.20;94.30;;;12.79;84.48;97524.88;5103229;27;20453;-76
2023/07/26 04:43:41;;;;;;;5.07;3.20;;;13.10;94.20;;;12.96;84.55;97547.44;5129375;27;20443;-79
2023/07/26 04:46:09;;;;;;;4.40;4.00;;;13.10;94.40;;;13.04;83.85;97549.78;5110875;27;20496;-75
2023/07/26 04:48:37;;;;;;;4.20;3.33;;;13.20;94.10;;;13.07;84.02;97551.19;5104312;27;20449;-77
2023/07/26 04:51:04;;;;;;;3.33;3.13;;;13.20;94.20;;;13.23;83.45;97555.00;5122053;27;20456;-77
2023/07/26 04:53:31;;;;;;;4.53;3.40;;;13.30;94.10;;;13.34;82.42;97557.88;5105265;28;20461;-76
2023/07/26 04:55:59;;;;;;;3.83;3.43;;;13.30;93.70;;;13.37;82.39;97565.53;5123395;27;21005;-76
2023/07/26 04:58:26;;;;;;;4.50;3.63;;;13.40;93.70;;;13.28;82.41;97563.25;5103659;27;20468;-76
2023/07/26 05:00:53;;;;;;;3.80;3.50;;;13.40;93.10;;;13.37;82.45;97565.53;5111347;27;20479;-77
2023/07/26 05:03:21;;;;;;;4.57;3.60;;;13.50;93.00;;;13.34;82.86;97569.56;5127340;27;20569;-78
2023/07/26 05:05:51;;;;;;;4.60;3.40;;;13.40;93.30;;;13.22;82.57;97566.91;5117893;27;20457;-77
2023/07/26 05:08:20;;;;;;;3.97;3.60;;;13.40;93.00;;;13.24;82.37;97567.47;5122531;27;20452;-78
2023/07/26 05:10:50;;;;;;;4.20;3.50;;;13.40;93.20;;;13.33;82.25;97573.34;5127848;27;20505;-76
2023/07/26 05:13:17;;;;;;;5.60;3.60;;;13.40;92.80;;;13.37;81.76;97573.69;5119395;27;20452;-78
2023/07/26 05:15:45;;;;;;;6.13;3.60;;;13.50;92.70;;;13.65;81.13;97577.44;5108074;27;20456;-78
2023/07/26 05:18:14;;;;;;;3.90;3.43;;;13.60;92.50;;;13.79;80.27;97583.34;5110625;27;20502;-79
2023/07/26 05:20:42;;;;;;;3.60;3.30;;;13.80;92.30;;;13.54;80.27;97579.97;5131178;27;20443;-85
2023/07/26 05:23:10;;;;;;;3.40;2.97;;;13.70;91.60;;;13.83;79.29;97579.91;5103202;27;21826;-75
2023/07/26 05:25:40;;;;;;;9.90;2.93;;;13.80;91.40;;;13.94;78.48;97585.50;5101410;27;20469;-75
2023/07/26 05:28:07;;;;;;;4.37;3.47;;;14.00;90.80;;;14.15;77.49;97592.06;5119242;27;20594;-73
2023/07/26 05:30:39;;;;;;;3.40;3.10;;;14.10;90.50;;;14.09;77.40;97595.75;5127154;27;20531;-79
2023/07/26 05:33:06;;;;;;;5.20;2.87;;;14.20;90.00;;;14.36;76.35;97593.19;5132912;27;20441;-82
2023/07/26 05:35:34;;;;;;;2.87;2.57;;;14.30;89.70;;;14.69;74.48;97591.44;5111873;27;20448;-79
2023/07/26 05:38:01;;;;;;;3.07;2.80;;;14.60;88.40;;;14.71;74.00;97594.75;5124598;27;20460;-78
2023/07/26 05:40:30;;;;;;;3.97;3.30;;;14.80;87.40;;;14.58;73.93;97589.66;5103132;27;20449;-78
2023/07/26 05:42:57;;;;;;;3.67;3.33;;;14.70;87.10;;;14.68;73.81;97595.22;5119127;27;20452;-77
2023/07/26 05:45:24;;;;;;;5.30;3.00;;;14.70;87.00;;;14.81;73.58;97593.25;5120648;27;20468;-81
2023/07/26 05:47:52;;;;;;;3.20;2.93;;;14.90;87.10;;;14.90;72.47;97602.59;5125410;27;20512;-80
2023/07/26 05:50:19;;;;;;;3.27;2.70;;;14.90;86.10;;;14.89;72.07;97600.94;5129715;27;20928;-75
2023/07/26 05:52:46;;;;;;;3.60;3.10;;;15.00;85.70;;;14.95;72.38;97593.66;5106947;28;20463;-80
2023/07/26 05:55:14;;;;;;;3.60;3.00;;;15.00;86.10;;;14.83;71.93;97600.06;5126464;27;20507;-84
2023/07/26 05:57:42;;;;;;;4.33;2.80;;;15.00;85.20;;;15.35;69.62;97591.63;5120966;27;20533;-77
2023/07/26 06:00:13;;;;;;;3.53;3.00;;;15.40;84.30;;;16.05;66.43;97608.06;5107506;27;20464;-77
2023/07/26 06:02:40;;;;;;;2.60;2.40;;;15.90;82.70;;;16.30;65.12;97606.59;5120470;27;20470;-77
2023/07/26 06:05:08;;;;;;;3.30;3.00;;;16.40;81.10;;;16.10;66.28;97605.38;5116220;27;20484;-77
2023/07/26 06:07:36;;;;;;;3.63;2.60;;;16.20;81.50;;;16.30;65.70;97609.31;5100406;27;21068;-80
2023/07/26 06:10:03;;;;;;;2.87;2.67;;;16.40;81.40;;;16.42;65.75;97614.59;5115851;27;20986;-80
2023/07/26 06:12:31;;;;;;;3.50;2.30;;;16.50;81.10;;;16.67;64.14;97610.34;5125983;27;20473;-83
2023/07/26 06:14:59;;;;;;;2.73;2.53;;;16.70;80.50;;;15.91;64.77;97557.84;5119106;27;20444;-82
2023/07/26 06:17:27;;;;;;;3.43;2.90;;;16.60;80.00;;;16.32;64.18;97598.16;5132194;27;20521;-83
2023/07/26 06:19:54;;;;;;;8.30;3.20;;;16.50;80.00;;;16.42;65.26;97615.41;5131366;27;20464;-84
2023/07/26 06:22:21;;;;;;;2.33;2.23;;;16.40;80.70;;;16.54;64.12;97600.75;5119533;27;20454;-84
2023/07/26 06:24:48;;;;;;;3.10;2.87;;;16.60;80.50;;;16.95;63.10;97609.13;5126053;27;20509;-79
2023/07/26 06:27:22;;;;;;;2.53;2.33;;;16.90;79.80;;;17.03;62.41;97615.16;5105312;27;20648;-81
2023/07/26 06:29:49;;;;;;;2.80;2.40;;;17.10;78.90;;;16.47;64.20;97632.88;5106595;28;20462;-83
2023/07/26 06:32:18;;;;;;;2.87;2.40;;;16.90;79.10;;;16.43;64.37;97636.13;5102677;27;20464;-82
2023/07/26 06:34:45;;;;;;;3.63;2.87;;;16.70;79.20;;;16.35;63.78;97628.44;5107063;27;20488;-78
2023/07/26 06:37:12;;;;;;;2.70;2.50;;;16.60;78.80;;;16.34;64.72;97634.16;5117936;27;20526;-78
2023/07/26 06:39:39;;;;;;;5.20;2.70;;;16.40;79.50;;;16.67;63.70;97633.00;5098518;27;20450;-80
2023/07/26 06:42:07;;;;;;;3.13;2.40;;;16.70;79.40;;;16.76;63.71;97637.97;5129233;27;20461;-80
2023/07/26 06:44:34;;;;;;;3.50;2.70;;;16.80;79.40;;;16.85;63.46;97639.06;5102220;27;20447;-78
2023/07/26 06:47:01;;;;;;;2.90;2.70;;;16.90;79.40;;;17.20;62.71;97640.31;5124740;27;21022;-81
2023/07/26 06:49:30;;;;;;;4.17;3.20;;;17.20;79.10;;;17.31;62.28;97645.81;5112865;27;20501;-80
2023/07/26 06:51:57;;;;;;;3.83;3.20;;;17.30;78.80;;;17.03;62.88;97645.19;5126283;27;20529;-81
2023/07/26 06:54:24;;;;;;;2.77;2.57;;;17.30;78.50;;;17.63;60.99;97647.53;5130710;27;20526;-81
2023/07/26 06:56:52;;;;;;;2.77;2.57;;;17.50;78.30;;;17.54;61.26;97645.34;5107660;27;20471;-80
2023/07/26 06:59:20;;;;;;;3.20;2.67;;;17.60;77.90;;;18.09;59.66;97650.34;5142670;27;20443;-79
2023/07/26 07:01:47;;;;;;;3.20;2.90;;;17.90;77.50;;;17.91;59.27;97648.94;5135914;27;21018;-78
2023/07/26 07:04:15;;;;;;;4.60;2.33;;;18.00;76.90;;;18.21;59.18;97647.34;5120339;27;20468;-77
2023/07/26 07:06:44;;;;;;;2.70;2.50;;;18.10;77.00;;;18.55;58.38;97645.91;5148413;27;20532;-77
2023/07/26 07:09:12;;;;;;;3.07;2.77;;;18.40;76.60;;;18.29;57.93;97647.88;5111629;27;20490;-76
2023/07/26 07:11:39;;;;;;;2.53;2.30;;;18.30;75.70;;;18.17;57.54;97645.44;5114285;27;20514;-77
2023/07/26 07:14:06;;;;;;;2.50;2.30;;;18.20;75.30;;;18.62;56.60;97635.50;5143524;27;20440;-78
2023/07/26 07:16:33;;;;;;;3.03;2.00;;;18.40;75.10;;;18.12;56.28;97638.03;5110151;27;20446;-79
2023/07/26 07:19:00;;;;;;;3.00;2.40;;;18.30;73.60;;;18.37;56.05;97650.06;5125458;27;20561;-78
2023/07/26 07:21:28;;;;;;;6.17;1.93;;;18.40;73.60;;;18.25;55.50;97648.44;5125318;27;20491;-77
2023/07/26 07:23:56;;;;;;;2.20;2.00;;;18.30;72.90;;;18.79;54.65;97650.78;5126600;27;20482;-80
2023/07/26 07:26:24;;;;;;;2.30;2.10;;;18.50;73.00;;;18.51;55.17;97650.31;5124512;27;20466;-76
2023/07/26 07:28:51;;;;;;;3.07;2.00;;;18.50;72.50;;;18.55;54.05;97652.22;5126494;27;20460;-77
2023/07/26 07:31:18;;;;;;;2.20;1.60;;;18.50;71.80;;;18.39;54.56;97654.13;5107129;27;20491;-79
2023/07/26 07:33:45;;;;;;;2.07;1.90;;;18.30;71.70;;;18.74;54.54;97650.81;5123598;27;21146;-79
2023/07/26 07:36:17;;;;;;;3.60;2.60;;;18.50;71.90;;;19.23;54.25;97655.56;5127159;27;20532;-81
2023/07/26 07:38:45;;;;;;;3.03;2.40;;;18.90;72.70;;;19.01;53.41;97653.22;5107940;27;20807;-79
2023/07/26 07:41:13;;;;;;;10.00;2.10;;;19.00;71.30;;;18.84;54.25;97650.75;5129208;27;20451;-80
2023/07/26 07:43:40;;;;;;;2.57;2.00;;;18.90;71.30;;;18.51;56.16;97659.34;5102473;27;20501;-81
2023/07/26 07:46:08;;;;;;;2.80;2.40;;;18.60;72.20;;;18.16;56.90;97660.19;5102209;27;20468;-77
2023/07/26 07:48:35;;;;;;;3.20;2.30;;;18.40;72.30;;;18.60;56.80;97656.84;5125682;27;20466;-82
2023/07/26 07:51:03;;;;;;;2.13;1.87;;;18.40;73.20;;;18.55;53.17;97665.06;5112743;27;20488;-80
2023/07/26 07:53:30;;;;;;;1.63;1.53;;;18.60;69.80;;;18.35;53.55;97649.50;5113073;27;20495;-78
2023/07/26 07:55:57;;;;;;;2.30;2.10;;;18.20;69.80;;;18.73;53.53;97654.63;5123342;27;21395;-81
2023/07/26 07:58:27;;;;;;;3.07;2.40;;;18.30;70.30;;;19.01;51.16;97652.38;5131122;27;20458;-80
2023/07/26 08:00:59;;;;;;;4.03;2.20;;;18.90;68.40;;;19.06;51.87;97655.09;5129518;27;20460;-79
2023/07/26 08:03:26;;;;;;;2.53;2.00;;;18.90;68.90;;;18.41;53.69;97660.16;5105494;27;21222;-77
2023/07/26 08:05:54;;;;;;;3.73;2.10;;;18.90;69.00;;;18.74;53.25;97654.34;5128246;27;20439;-75
2023/07/26 08:08:22;;;;;;;2.77;2.17;;;18.80;69.20;;;18.86;53.94;97651.28;5123494;27;20487;-80
2023/07/26 08:10:50;;;;;;;2.83;2.00;;;19.00;69.80;;;19.02;50.95;97634.84;5126424;27;20543;-78
2023/07/26 08:13:18;;;;;;;2.13;1.70;;;19.20;67.30;;;18.95;50.57;97657.84;5124786;27;20439;-77
2023/07/26 08:15:46;;;;;;;2.40;1.80;;;19.40;66.20;;;18.63;51.93;97653.56;5111639;27;20504;-76
2023/07/26 08:18:13;;;;;;;1.70;1.53;;;19.10;67.00;;;19.05;50.84;97653.47;5102316;27;20452;-77
2023/07/26 08:20:40;;;;;;;3.97;2.13;;;19.30;66.50;;;19.19;50.40;97649.03;5129015;27;20456;-73
2023/07/26 08:23:07;;;;;;;2.57;1.63;;;19.40;66.00;;;18.41;50.87;97662.88;5128168;27;20434;-78
2023/07/26 08:25:35;;;;;;;1.60;1.50;;;19.00;64.60;;;18.44;51.05;97655.25;5109280;27;20546;-78
2023/07/26 08:28:02;;;;;;;2.70;1.33;;;18.80;64.90;;;18.52;51.04;97666.44;5128609;27;21114;-78
2023/07/26 08:30:29;;;;;;;2.60;1.50;;;18.90;65.20;;;18.69;50.93;97659.84;5122614;27;20463;-78
2023/07/26 08:32:58;;;;;;;2.77;1.57;;;19.00;65.20;;;18.90;50.84;97663.34;5099156;27;20594;-76
2023/07/26 08:35:25;;;;;;;2.07;1.57;;;19.20;65.20;;;19.10;50.69;97653.44;5128285;27;20452;-79
2023/07/26 08:37:52;;;;;;;1.63;1.53;;;19.20;65.70;;;18.71;50.44;97656.81;5123110;27;21295;-78
2023/07/26 08:40:20;;;;;;;2.80;1.70;;;19.20;64.50;;;18.50;51.28;97657.69;5109411;27;20460;-79
2023/07/26 08:42:47;;;;;;;2.10;1.90;;;18.90;64.80;;;18.97;50.67;97658.38;5101012;27;20442;-79
2023/07/26 08:45:15;;;;;;;3.20;1.80;;;19.10;65.10;;;18.43;51.29;97659.88;5126052;27;20448;-78
2023/07/26 08:47:43;;;;;;;2.77;2.30;;;18.80;64.60;;;18.19;53.18;97667.84;5132907;27;20476;-78
2023/07/26 08:50:12;;;;;;;2.90;2.20;;;18.50;66.10;;;17.82;56.19;97656.03;5133145;27;20445;-80
2023/07/26 08:52:40;;;;;;;3.40;3.10;;;18.30;68.30;;;18.04;55.77;97657.72;5131606;27;20804;-77
2023/07/26 08:55:10;;;;;;;2.27;2.17;;;18.20;69.00;;;17.95;57.60;97649.22;5106648;27;20440;-83
2023/07/26 08:57:37;;;;;;;4.87;2.87;;;18.20;70.40;;;17.98;58.74;97649.50;5118317;27;20464;-83
2023/07/26 09:00:07;;;;;;;10.77;8.50;;;18.20;71.70;;;17.99;58.72;97653.84;5109139;27;20455;-77
2023/07/26 09:02:35;;;;;;;8.10;5.27;;;18.20;72.00;;;18.30;58.64;97654.97;5125111;27;20449;-81
2023/07/26 09:05:03;;;;;;;7.87;4.50;;;18.40;72.40;;;18.42;57.79;97652.78;5119203;27;20452;-82
2023/07/26 09:07:31;;;;;;;4.47;3.57;;;18.60;71.90;;;18.36;56.89;97659.38;5109364;27;20509;-78
2023/07/26 09:10:00;;;;;;;6.10;5.20;;;18.60;71.00;;;18.29;56.59;97648.69;5108723;27;20463;-80
2023/07/26 09:12:29;;;;;;;5.90;5.27;;;18.70;70.50;;;18.58;56.25;97658.22;5122628;27;20460;-84
2023/07/26 09:14:59;;;;;;;3.83;3.53;;;18.80;70.50;;;18.10;54.80;97654.69;5107957;27;20459;-81
2023/07/26 09:17:41;;;;;;;3.70;3.37;;;18.60;68.10;;;17.61;54.82;97644.25;5108127;27;20449;-78
2023/07/26 09:20:22;;;;;;;5.53;4.80;;;18.20;67.40;;;17.69;56.34;97630.09;5128917;27;20745;-79
2023/07/26 09:23:00;;;;;;;6.60;5.90;;;18.20;69.10;;;17.82;56.06;97632.28;5125253;27;20472;-78
2023/07/26 09:25:39;;;;;;;6.40;5.53;;;18.20;69.00;;;18.23;55.22;97626.00;5104875;27;20528;-82
2023/07/26 09:28:08;;;;;;;5.70;5.20;;;18.30;69.00;;;18.70;53.99;97628.66;5105331;27;20487;-79
2023/07/26 09:30:36;;;;;;;5.90;5.30;;;18.60;68.80;;;19.30;53.70;97622.41;5127994;27;20451;-79
2023/07/26 09:33:04;;;;;;;6.10;5.50;;;19.00;69.90;;;19.71;53.55;97618.59;5102208;27;20456;-79
2023/07/26 09:35:32;;;;;;;5.77;5.30;;;19.40;70.10;;;20.01;52.48;97615.91;5110241;28;20942;-79
2023/07/26 09:38:10;;;;;;;9.93;6.90;;;19.80;69.20;;;19.87;52.56;97618.47;5111721;27;20465;-81
2023/07/26 09:40:38;;;;;;;7.73;5.87;;;19.80;68.70;;;19.88;51.41;97622.84;5106491;27;20458;-80
2023/07/26 09:43:06;;;;;;;6.30;5.73;;;19.80;67.60;;;20.05;50.45;97623.28;5125100;27;20525;-80
2023/07/26 09:45:33;;;;;;;5.33;4.93;;;19.90;67.00;;;20.07;51.38;97623.81;5113463;28;20465;-77
2023/07/26 09:48:09;;;;;;;7.80;5.20;;;20.10;67.20;;;20.28;51.41;97626.38;5138891;27;20537;-75
2023/07/26 09:50:37;;;;;;;7.90;7.10;;;20.30;67.50;;;20.83;49.33;97627.22;5147204;27;20477;-78
2023/07/26 09:53:07;;;;;;;5.00;4.60;;;20.80;66.40;;;20.67;48.12;97633.66;5135011;27;20456;-78
2023/07/26 09:55:35;;;;;;;5.30;4.87;;;21.00;64.80;;;20.50;48.56;97636.03;5108433;28;21259;-79
2023/07/26 09:58:04;;;;;;;6.23;5.70;;;20.80;64.20;;;20.20;49.94;97632.47;5105894;27;20510;-80
2023/07/26 10:00:33;;;;;;;5.50;5.00;;;20.50;64.80;;;19.86;49.65;97633.28;5125311;27;20454;-79
2023/07/26 10:03:04;;;;;;;5.13;4.63;;;20.20;64.50;;;18.78;52.56;97597.97;5102004;28;20457;-82
2023/07/26 10:05:38;;;;;;;5.60;5.10;;;19.60;65.50;;;18.71;53.51;97619.34;5145355;27;20447;-79
2023/07/26 10:08:07;;;;;;;6.57;5.97;;;19.20;66.30;;;18.73;54.11;97633.56;5122625;27;20479;-77
2023/07/26 10:10:34;;;;;;;6.68;5.78;;;19.00;67.00;;;18.68;54.64;97628.13;5140791;27;20489;-81
2023/07/26 10:13:02;;;;;;;7.70;6.60;;;18.90;67.70;;;17.72;54.46;97602.22;5110392;27;20251;-78
2023/07/26 10:15:31;;;;;;;7.00;5.90;;;18.50;66.80;;;17.78;56.36;97650.28;5102780;27;20450;-79
2023/07/26 10:17:59;;;;;;;6.23;5.73;;;18.10;68.00;;;17.75;55.33;97661.75;5106160;27;20544;-85
2023/07/26 10:20:26;;;;;;;5.70;5.20;;;18.10;67.80;;;17.26;57.58;97682.94;5129648;27;20511;-83
2023/07/26 10:23:02;;;;;;;5.47;4.90;;;17.70;68.50;;;16.34;58.54;97705.03;5116762;27;20516;-79